sensor_id;sensor_type;location;lat;lon;timestamp;temperature;humidity
21353;DHT22;10834;52.268;6.770;2023-11-21T00:00:17;8.10;99.90
21353;DHT22;10834;52.268;6.770;2023-11-21T00:03:01;8.10;99.90
21353;DHT22;10834;52.268;6.770;2023-11-21T00:05:46;8.10;99.90
21353;DHT22;10834;52.268;6.770;2023-11-21T00:08:29;8.10;99.90
21353;DHT22;10834;52.268;6.770;2023-11-21T00:11:13;8.10;99.90
21353;DHT22;10834;52.268;6.770;2023-11-21T00:13:58;8.10;99.90
21353;DHT22;10834;52.268;6.770;2023-11-21T00:16:42;8.20;99.90
21353;DHT22;10834;52.268;6.770;2023-11-21T00:19:26;8.20;99.90
21353;DHT22;10834;52.268;6.770;2023-11-21T00:22:10;8.20;99.90
21353;DHT22;10834;52.268;6.770;2023-11-21T00:24:54;8.20;99.90
21353;DHT22;10834;52.268;6.770;2023-11-21T00:27:38;8.20;99.90
21353;DHT22;10834;52.268;6.770;2023-11-21T00:30:22;8.20;99.90
21353;DHT22;10834;52.268;6.770;2023-11-21T00:33:06;8.20;99.90
21353;DHT22;10834;52.268;6.770;2023-11-21T00:35:51;8.10;99.90
21353;DHT22;10834;52.268;6.770;2023-11-21T00:38:35;8.10;99.90
21353;DHT22;10834;52.268;6.770;2023-11-21T00:41:19;8.10;99.90
21353;DHT22;10834;52.268;6.770;2023-11-21T00:44:03;8.20;99.90
21353;DHT22;10834;52.268;6.770;2023-11-21T00:46:48;8.10;99.90
21353;DHT22;10834;52.268;6.770;2023-11-21T00:49:32;8.20;99.90
21353;DHT22;10834;52.268;6.770;2023-11-21T00:52:16;8.10;99.90
21353;DHT22;10834;52.268;6.770;2023-11-21T00:55:01;8.00;99.90
21353;DHT22;10834;52.268;6.770;2023-11-21T00:57:47;8.00;99.90
21353;DHT22;10834;52.268;6.770;2023-11-21T01:00:31;7.90;99.90
21353;DHT22;10834;52.268;6.770;2023-11-21T01:03:15;7.80;99.90
21353;DHT22;10834;52.268;6.770;2023-11-21T01:06:00;7.80;99.90
21353;DHT22;10834;52.268;6.770;2023-11-21T01:08:44;7.80;99.90
21353;DHT22;10834;52.268;6.770;2023-11-21T01:11:28;7.80;99.90
21353;DHT22;10834;52.268;6.770;2023-11-21T01:14:13;7.90;99.90
21353;DHT22;10834;52.268;6.770;2023-11-21T01:16:57;7.90;99.90
21353;DHT22;10834;52.268;6.770;2023-11-21T01:19:41;7.90;99.90
21353;DHT22;10834;52.268;6.770;2023-11-21T01:22:26;7.90;99.90
21353;DHT22;10834;52.268;6.770;2023-11-21T01:25:10;8.00;99.90
21353;DHT22;10834;52.268;6.770;2023-11-21T01:27:55;8.00;99.90
21353;DHT22;10834;52.268;6.770;2023-11-21T01:30:40;8.00;99.90
21353;DHT22;10834;52.268;6.770;2023-11-21T01:33:24;8.00;99.90
21353;DHT22;10834;52.268;6.770;2023-11-21T01:36:09;8.00;99.90
21353;DHT22;10834;52.268;6.770;2023-11-21T01:38:54;8.00;99.90
21353;DHT22;10834;52.268;6.770;2023-11-21T01:41:38;8.10;99.90
21353;DHT22;10834;52.268;6.770;2023-11-21T01:44:22;8.10;99.90
21353;DHT22;10834;52.268;6.770;2023-11-21T01:47:08;8.10;99.90
21353;DHT22;10834;52.268;6.770;2023-11-21T01:49:53;8.10;99.90
21353;DHT22;10834;52.268;6.770;2023-11-21T01:52:37;8.10;99.90
21353;DHT22;10834;52.268;6.770;2023-11-21T01:55:22;8.10;99.90
21353;DHT22;10834;52.268;6.770;2023-11-21T01:58:07;8.10;99.90
21353;DHT22;10834;52.268;6.770;2023-11-21T02:00:52;8.10;99.90
21353;DHT22;10834;52.268;6.770;2023-11-21T02:03:39;8.10;99.90
21353;DHT22;10834;52.268;6.770;2023-11-21T02:06:23;8.20;99.90
21353;DHT22;10834;52.268;6.770;2023-11-21T02:09:08;8.20;99.90
21353;DHT22;10834;52.268;6.770;2023-11-21T02:11:53;8.20;99.90
21353;DHT22;10834;52.268;6.770;2023-11-21T02:14:37;8.20;99.90
21353;DHT22;10834;52.268;6.770;2023-11-21T02:17:21;8.20;99.90
21353;DHT22;10834;52.268;6.770;2023-11-21T02:20:06;8.20;99.90
21353;DHT22;10834;52.268;6.770;2023-11-21T02:22:52;8.20;99.90
21353;DHT22;10834;52.268;6.770;2023-11-21T02:25:43;8.20;99.90
21353;DHT22;10834;52.268;6.770;2023-11-21T02:28:27;8.30;99.90
21353;DHT22;10834;52.268;6.770;2023-11-21T02:31:11;8.30;99.90
21353;DHT22;10834;52.268;6.770;2023-11-21T02:33:56;8.30;99.90
21353;DHT22;10834;52.268;6.770;2023-11-21T02:36:41;8.20;99.90
21353;DHT22;10834;52.268;6.770;2023-11-21T02:39:26;8.20;99.90
21353;DHT22;10834;52.268;6.770;2023-11-21T02:42:10;8.20;99.90
21353;DHT22;10834;52.268;6.770;2023-11-21T02:44:54;8.20;99.90
21353;DHT22;10834;52.268;6.770;2023-11-21T02:47:39;8.10;99.90
21353;DHT22;10834;52.268;6.770;2023-11-21T02:50:24;8.10;99.90
21353;DHT22;10834;52.268;6.770;2023-11-21T02:53:09;8.10;99.90
21353;DHT22;10834;52.268;6.770;2023-11-21T02:55:54;8.20;99.90
21353;DHT22;10834;52.268;6.770;2023-11-21T02:58:41;8.20;99.90
21353;DHT22;10834;52.268;6.770;2023-11-21T03:01:28;8.20;99.90
21353;DHT22;10834;52.268;6.770;2023-11-21T03:04:12;8.20;99.90
21353;DHT22;10834;52.268;6.770;2023-11-21T03:07:01;8.20;99.90
21353;DHT22;10834;52.268;6.770;2023-11-21T03:09:45;8.20;99.90
21353;DHT22;10834;52.268;6.770;2023-11-21T03:12:30;8.20;99.90
21353;DHT22;10834;52.268;6.770;2023-11-21T03:15:15;8.20;99.90
21353;DHT22;10834;52.268;6.770;2023-11-21T03:17:58;8.20;99.90
21353;DHT22;10834;52.268;6.770;2023-11-21T03:20:43;8.20;99.90
21353;DHT22;10834;52.268;6.770;2023-11-21T03:23:31;8.20;99.90
21353;DHT22;10834;52.268;6.770;2023-11-21T03:26:15;8.20;99.90
21353;DHT22;10834;52.268;6.770;2023-11-21T03:29:00;8.20;99.90
21353;DHT22;10834;52.268;6.770;2023-11-21T03:31:44;8.20;99.90
21353;DHT22;10834;52.268;6.770;2023-11-21T03:34:28;8.30;99.90
21353;DHT22;10834;52.268;6.770;2023-11-21T03:37:12;8.30;99.90
21353;DHT22;10834;52.268;6.770;2023-11-21T03:39:57;8.30;99.90
21353;DHT22;10834;52.268;6.770;2023-11-21T03:42:41;8.30;99.90
21353;DHT22;10834;52.268;6.770;2023-11-21T03:45:26;8.30;99.90
21353;DHT22;10834;52.268;6.770;2023-11-21T03:48:12;8.30;99.90
21353;DHT22;10834;52.268;6.770;2023-11-21T03:50:56;8.30;99.90
21353;DHT22;10834;52.268;6.770;2023-11-21T03:53:40;8.30;99.90
21353;DHT22;10834;52.268;6.770;2023-11-21T03:56:25;8.30;99.90
21353;DHT22;10834;52.268;6.770;2023-11-21T03:59:10;8.20;99.90
21353;DHT22;10834;52.268;6.770;2023-11-21T04:01:56;8.20;99.90
21353;DHT22;10834;52.268;6.770;2023-11-21T04:04:40;8.20;99.90
21353;DHT22;10834;52.268;6.770;2023-11-21T04:07:25;8.20;99.90
21353;DHT22;10834;52.268;6.770;2023-11-21T04:10:09;8.20;99.90
21353;DHT22;10834;52.268;6.770;2023-11-21T04:12:56;8.20;99.90
21353;DHT22;10834;52.268;6.770;2023-11-21T04:15:40;8.30;99.90
21353;DHT22;10834;52.268;6.770;2023-11-21T04:18:24;8.30;99.90
21353;DHT22;10834;52.268;6.770;2023-11-21T04:21:08;8.20;99.90
21353;DHT22;10834;52.268;6.770;2023-11-21T04:23:52;8.30;99.90
21353;DHT22;10834;52.268;6.770;2023-11-21T04:26:36;8.30;99.90
21353;DHT22;10834;52.268;6.770;2023-11-21T04:29:21;8.30;99.90
21353;DHT22;10834;52.268;6.770;2023-11-21T04:32:06;8.20;99.90
21353;DHT22;10834;52.268;6.770;2023-11-21T04:34:52;8.20;99.90
21353;DHT22;10834;52.268;6.770;2023-11-21T04:37:36;8.20;99.90
21353;DHT22;10834;52.268;6.770;2023-11-21T04:40:20;8.30;99.90
21353;DHT22;10834;52.268;6.770;2023-11-21T04:43:04;8.20;99.90
21353;DHT22;10834;52.268;6.770;2023-11-21T04:45:48;8.30;99.90
21353;DHT22;10834;52.268;6.770;2023-11-21T04:48:32;8.20;99.90
21353;DHT22;10834;52.268;6.770;2023-11-21T04:51:16;8.30;99.90
21353;DHT22;10834;52.268;6.770;2023-11-21T04:54:01;8.30;99.90
21353;DHT22;10834;52.268;6.770;2023-11-21T04:56:46;8.30;99.90
21353;DHT22;10834;52.268;6.770;2023-11-21T04:59:30;8.20;99.90
21353;DHT22;10834;52.268;6.770;2023-11-21T05:02:14;8.20;99.90
21353;DHT22;10834;52.268;6.770;2023-11-21T05:04:58;8.30;99.90
21353;DHT22;10834;52.268;6.770;2023-11-21T05:07:42;8.20;99.90
21353;DHT22;10834;52.268;6.770;2023-11-21T05:10:26;8.30;99.90
21353;DHT22;10834;52.268;6.770;2023-11-21T05:13:10;8.20;99.90
21353;DHT22;10834;52.268;6.770;2023-11-21T05:15:55;8.30;99.90
21353;DHT22;10834;52.268;6.770;2023-11-21T05:18:42;8.30;99.90
21353;DHT22;10834;52.268;6.770;2023-11-21T05:21:27;8.30;99.90
21353;DHT22;10834;52.268;6.770;2023-11-21T05:24:13;8.30;99.90
21353;DHT22;10834;52.268;6.770;2023-11-21T05:26:57;8.30;99.90
21353;DHT22;10834;52.268;6.770;2023-11-21T05:29:41;8.30;99.90
21353;DHT22;10834;52.268;6.770;2023-11-21T05:32:25;8.30;99.90
21353;DHT22;10834;52.268;6.770;2023-11-21T05:35:10;8.30;99.90
21353;DHT22;10834;52.268;6.770;2023-11-21T05:37:59;8.30;99.90
21353;DHT22;10834;52.268;6.770;2023-11-21T05:40:43;8.30;99.90
21353;DHT22;10834;52.268;6.770;2023-11-21T05:43:28;8.30;99.90
21353;DHT22;10834;52.268;6.770;2023-11-21T05:46:14;8.40;99.90
21353;DHT22;10834;52.268;6.770;2023-11-21T05:48:58;8.30;99.90
21353;DHT22;10834;52.268;6.770;2023-11-21T05:51:42;8.40;99.90
21353;DHT22;10834;52.268;6.770;2023-11-21T05:54:26;8.40;99.90
21353;DHT22;10834;52.268;6.770;2023-11-21T05:57:11;8.40;99.90
21353;DHT22;10834;52.268;6.770;2023-11-21T05:59:55;8.40;99.90
21353;DHT22;10834;52.268;6.770;2023-11-21T06:02:39;8.40;99.90
21353;DHT22;10834;52.268;6.770;2023-11-21T06:05:24;8.40;99.90
21353;DHT22;10834;52.268;6.770;2023-11-21T06:08:09;8.40;99.90
21353;DHT22;10834;52.268;6.770;2023-11-21T06:10:54;8.40;99.90
21353;DHT22;10834;52.268;6.770;2023-11-21T06:13:40;8.40;99.90
21353;DHT22;10834;52.268;6.770;2023-11-21T06:16:24;8.40;99.90
21353;DHT22;10834;52.268;6.770;2023-11-21T06:19:08;8.40;99.90
21353;DHT22;10834;52.268;6.770;2023-11-21T06:21:52;8.30;99.90
21353;DHT22;10834;52.268;6.770;2023-11-21T06:24:36;8.30;99.90
21353;DHT22;10834;52.268;6.770;2023-11-21T06:27:21;8.30;99.90
21353;DHT22;10834;52.268;6.770;2023-11-21T06:30:06;8.30;99.90
21353;DHT22;10834;52.268;6.770;2023-11-21T06:32:50;8.30;99.90
21353;DHT22;10834;52.268;6.770;2023-11-21T06:35:35;8.30;99.90
21353;DHT22;10834;52.268;6.770;2023-11-21T06:38:19;8.30;99.90
21353;DHT22;10834;52.268;6.770;2023-11-21T06:41:03;8.30;99.90
21353;DHT22;10834;52.268;6.770;2023-11-21T06:43:48;8.40;99.90
21353;DHT22;10834;52.268;6.770;2023-11-21T06:46:33;8.30;99.90
21353;DHT22;10834;52.268;6.770;2023-11-21T06:49:17;8.30;99.90
21353;DHT22;10834;52.268;6.770;2023-11-21T06:52:01;8.30;99.90
21353;DHT22;10834;52.268;6.770;2023-11-21T06:54:47;8.30;99.90
21353;DHT22;10834;52.268;6.770;2023-11-21T06:57:33;8.40;99.90
21353;DHT22;10834;52.268;6.770;2023-11-21T07:00:17;8.40;99.90
21353;DHT22;10834;52.268;6.770;2023-11-21T07:03:03;8.40;99.90
21353;DHT22;10834;52.268;6.770;2023-11-21T07:05:47;8.40;99.90
21353;DHT22;10834;52.268;6.770;2023-11-21T07:08:31;8.40;99.90
21353;DHT22;10834;52.268;6.770;2023-11-21T07:11:15;8.40;99.90
21353;DHT22;10834;52.268;6.770;2023-11-21T07:14:00;8.50;99.90
21353;DHT22;10834;52.268;6.770;2023-11-21T07:16:49;8.50;99.90
21353;DHT22;10834;52.268;6.770;2023-11-21T07:19:35;8.50;99.90
21353;DHT22;10834;52.268;6.770;2023-11-21T07:22:19;8.50;99.90
21353;DHT22;10834;52.268;6.770;2023-11-21T07:25:05;8.50;99.90
21353;DHT22;10834;52.268;6.770;2023-11-21T07:27:51;8.50;99.90
21353;DHT22;10834;52.268;6.770;2023-11-21T07:30:35;8.50;99.90
21353;DHT22;10834;52.268;6.770;2023-11-21T07:33:19;8.60;99.90
21353;DHT22;10834;52.268;6.770;2023-11-21T07:36:05;8.60;99.90
21353;DHT22;10834;52.268;6.770;2023-11-21T07:38:51;8.60;99.90
21353;DHT22;10834;52.268;6.770;2023-11-21T07:41:35;8.70;99.90
21353;DHT22;10834;52.268;6.770;2023-11-21T07:44:19;8.70;99.90
21353;DHT22;10834;52.268;6.770;2023-11-21T07:47:04;8.80;99.90
21353;DHT22;10834;52.268;6.770;2023-11-21T07:49:48;8.80;99.90
21353;DHT22;10834;52.268;6.770;2023-11-21T07:52:33;8.90;99.90
21353;DHT22;10834;52.268;6.770;2023-11-21T07:55:17;8.90;99.90
21353;DHT22;10834;52.268;6.770;2023-11-21T07:58:02;8.90;99.90
21353;DHT22;10834;52.268;6.770;2023-11-21T08:00:46;8.90;99.90
21353;DHT22;10834;52.268;6.770;2023-11-21T08:03:31;9.00;99.90
21353;DHT22;10834;52.268;6.770;2023-11-21T08:06:15;9.00;99.90
21353;DHT22;10834;52.268;6.770;2023-11-21T08:08:59;9.00;99.90
21353;DHT22;10834;52.268;6.770;2023-11-21T08:11:43;9.00;99.90
21353;DHT22;10834;52.268;6.770;2023-11-21T08:14:27;9.10;99.90
21353;DHT22;10834;52.268;6.770;2023-11-21T08:17:12;9.10;99.90
21353;DHT22;10834;52.268;6.770;2023-11-21T08:19:56;9.10;99.90
21353;DHT22;10834;52.268;6.770;2023-11-21T08:22:43;9.20;99.90
21353;DHT22;10834;52.268;6.770;2023-11-21T08:25:27;9.20;99.90
21353;DHT22;10834;52.268;6.770;2023-11-21T08:28:13;9.20;99.90
21353;DHT22;10834;52.268;6.770;2023-11-21T08:31:01;9.20;99.90
21353;DHT22;10834;52.268;6.770;2023-11-21T08:33:45;9.20;99.90
21353;DHT22;10834;52.268;6.770;2023-11-21T08:36:29;9.20;99.90
21353;DHT22;10834;52.268;6.770;2023-11-21T08:39:15;9.20;99.90
21353;DHT22;10834;52.268;6.770;2023-11-21T08:42:00;9.30;99.90
21353;DHT22;10834;52.268;6.770;2023-11-21T08:44:44;9.30;99.90
21353;DHT22;10834;52.268;6.770;2023-11-21T08:47:29;9.30;99.90
21353;DHT22;10834;52.268;6.770;2023-11-21T08:50:13;9.30;99.90
21353;DHT22;10834;52.268;6.770;2023-11-21T08:52:58;9.30;99.90
21353;DHT22;10834;52.268;6.770;2023-11-21T08:55:43;9.30;99.90
21353;DHT22;10834;52.268;6.770;2023-11-21T08:58:28;9.30;99.90
21353;DHT22;10834;52.268;6.770;2023-11-21T09:01:13;9.40;99.90
21353;DHT22;10834;52.268;6.770;2023-11-21T09:03:58;9.40;99.90
21353;DHT22;10834;52.268;6.770;2023-11-21T09:06:42;9.40;99.90
21353;DHT22;10834;52.268;6.770;2023-11-21T09:09:26;9.50;99.90
21353;DHT22;10834;52.268;6.770;2023-11-21T09:12:11;9.50;99.90
21353;DHT22;10834;52.268;6.770;2023-11-21T09:14:56;9.60;99.90
21353;DHT22;10834;52.268;6.770;2023-11-21T09:17:40;9.60;99.90
21353;DHT22;10834;52.268;6.770;2023-11-21T09:20:25;9.60;99.90
21353;DHT22;10834;52.268;6.770;2023-11-21T09:23:09;9.70;99.90
21353;DHT22;10834;52.268;6.770;2023-11-21T09:25:53;9.80;99.90
21353;DHT22;10834;52.268;6.770;2023-11-21T09:28:40;9.80;99.90
21353;DHT22;10834;52.268;6.770;2023-11-21T09:31:27;9.80;99.90
21353;DHT22;10834;52.268;6.770;2023-11-21T09:34:11;9.90;99.90
21353;DHT22;10834;52.268;6.770;2023-11-21T09:36:55;9.90;99.90
21353;DHT22;10834;52.268;6.770;2023-11-21T09:39:39;9.90;99.90
21353;DHT22;10834;52.268;6.770;2023-11-21T09:42:36;9.90;99.90
21353;DHT22;10834;52.268;6.770;2023-11-21T09:45:26;10.00;99.90
21353;DHT22;10834;52.268;6.770;2023-11-21T09:48:11;10.10;99.90
21353;DHT22;10834;52.268;6.770;2023-11-21T09:50:56;10.20;99.90
21353;DHT22;10834;52.268;6.770;2023-11-21T09:53:42;10.30;99.90
21353;DHT22;10834;52.268;6.770;2023-11-21T09:56:28;10.50;99.90
21353;DHT22;10834;52.268;6.770;2023-11-21T09:59:15;10.70;99.90
21353;DHT22;10834;52.268;6.770;2023-11-21T10:02:00;10.70;99.90
21353;DHT22;10834;52.268;6.770;2023-11-21T10:04:46;10.70;99.90
21353;DHT22;10834;52.268;6.770;2023-11-21T10:07:31;10.70;99.90
21353;DHT22;10834;52.268;6.770;2023-11-21T10:10:19;10.60;99.90
21353;DHT22;10834;52.268;6.770;2023-11-21T10:13:06;10.60;99.90
21353;DHT22;10834;52.268;6.770;2023-11-21T10:15:52;10.60;99.90
21353;DHT22;10834;52.268;6.770;2023-11-21T10:18:37;10.70;99.90
21353;DHT22;10834;52.268;6.770;2023-11-21T10:21:23;10.70;99.90
21353;DHT22;10834;52.268;6.770;2023-11-21T10:24:07;10.70;99.90
21353;DHT22;10834;52.268;6.770;2023-11-21T10:26:52;10.70;99.90
21353;DHT22;10834;52.268;6.770;2023-11-21T10:29:39;10.80;99.90
21353;DHT22;10834;52.268;6.770;2023-11-21T10:32:28;10.90;99.90
21353;DHT22;10834;52.268;6.770;2023-11-21T10:35:16;11.00;99.90
21353;DHT22;10834;52.268;6.770;2023-11-21T10:38:00;11.20;99.90
21353;DHT22;10834;52.268;6.770;2023-11-21T10:40:44;11.40;99.90
21353;DHT22;10834;52.268;6.770;2023-11-21T10:43:30;11.50;99.90
21353;DHT22;10834;52.268;6.770;2023-11-21T10:46:15;11.50;99.90
21353;DHT22;10834;52.268;6.770;2023-11-21T10:48:59;11.50;99.90
21353;DHT22;10834;52.268;6.770;2023-11-21T10:51:44;11.50;99.90
21353;DHT22;10834;52.268;6.770;2023-11-21T10:54:28;11.40;99.90
21353;DHT22;10834;52.268;6.770;2023-11-21T10:57:17;11.30;99.90
21353;DHT22;10834;52.268;6.770;2023-11-21T11:00:02;11.20;99.90
21353;DHT22;10834;52.268;6.770;2023-11-21T11:02:51;11.10;99.90
21353;DHT22;10834;52.268;6.770;2023-11-21T11:05:36;11.00;99.90
21353;DHT22;10834;52.268;6.770;2023-11-21T11:08:23;10.80;99.90
21353;DHT22;10834;52.268;6.770;2023-11-21T11:11:11;10.80;99.90
21353;DHT22;10834;52.268;6.770;2023-11-21T11:13:56;10.70;99.90
21353;DHT22;10834;52.268;6.770;2023-11-21T11:16:41;10.60;99.90
21353;DHT22;10834;52.268;6.770;2023-11-21T11:19:26;10.60;99.90
21353;DHT22;10834;52.268;6.770;2023-11-21T11:22:37;10.60;99.90
21353;DHT22;10834;52.268;6.770;2023-11-21T11:25:34;10.60;99.90
21353;DHT22;10834;52.268;6.770;2023-11-21T11:28:34;10.50;99.90
21353;DHT22;10834;52.268;6.770;2023-11-21T11:31:33;10.50;99.90
21353;DHT22;10834;52.268;6.770;2023-11-21T11:34:41;10.40;99.90
21353;DHT22;10834;52.268;6.770;2023-11-21T11:37:28;10.50;99.90
21353;DHT22;10834;52.268;6.770;2023-11-21T11:40:13;10.40;99.90
21353;DHT22;10834;52.268;6.770;2023-11-21T11:42:58;10.40;99.90
21353;DHT22;10834;52.268;6.770;2023-11-21T11:45:46;10.40;99.90
21353;DHT22;10834;52.268;6.770;2023-11-21T11:48:38;10.40;99.90
21353;DHT22;10834;52.268;6.770;2023-11-21T11:51:23;10.40;99.90
21353;DHT22;10834;52.268;6.770;2023-11-21T11:54:07;10.40;99.90
21353;DHT22;10834;52.268;6.770;2023-11-21T11:56:52;10.30;99.90
21353;DHT22;10834;52.268;6.770;2023-11-21T12:00:09;10.20;99.90
21353;DHT22;10834;52.268;6.770;2023-11-21T12:02:58;10.20;99.90
21353;DHT22;10834;52.268;6.770;2023-11-21T12:05:43;10.20;99.90
21353;DHT22;10834;52.268;6.770;2023-11-21T12:08:30;10.20;99.90
21353;DHT22;10834;52.268;6.770;2023-11-21T12:11:17;10.20;99.90
21353;DHT22;10834;52.268;6.770;2023-11-21T12:14:02;10.20;99.90
21353;DHT22;10834;52.268;6.770;2023-11-21T12:16:49;10.20;99.90
21353;DHT22;10834;52.268;6.770;2023-11-21T12:19:33;10.20;99.90
21353;DHT22;10834;52.268;6.770;2023-11-21T12:22:17;10.20;99.90
21353;DHT22;10834;52.268;6.770;2023-11-21T12:25:03;10.30;99.90
21353;DHT22;10834;52.268;6.770;2023-11-21T12:27:50;10.20;99.90
21353;DHT22;10834;52.268;6.770;2023-11-21T12:30:36;10.30;99.90
21353;DHT22;10834;52.268;6.770;2023-11-21T12:33:21;10.20;99.90
21353;DHT22;10834;52.268;6.770;2023-11-21T12:36:06;10.20;99.90
21353;DHT22;10834;52.268;6.770;2023-11-21T12:38:54;10.30;99.90
21353;DHT22;10834;52.268;6.770;2023-11-21T12:41:39;10.30;99.90
21353;DHT22;10834;52.268;6.770;2023-11-21T12:44:23;10.40;99.90
21353;DHT22;10834;52.268;6.770;2023-11-21T12:47:08;10.60;99.90
21353;DHT22;10834;52.268;6.770;2023-11-21T12:49:52;10.60;99.90
21353;DHT22;10834;52.268;6.770;2023-11-21T12:52:36;10.60;99.90
21353;DHT22;10834;52.268;6.770;2023-11-21T12:55:21;10.60;99.90
21353;DHT22;10834;52.268;6.770;2023-11-21T12:58:07;10.60;99.90
21353;DHT22;10834;52.268;6.770;2023-11-21T13:00:52;10.50;99.90
21353;DHT22;10834;52.268;6.770;2023-11-21T13:03:38;10.50;99.90
21353;DHT22;10834;52.268;6.770;2023-11-21T13:06:24;10.40;99.90
21353;DHT22;10834;52.268;6.770;2023-11-21T13:09:11;10.30;99.90
21353;DHT22;10834;52.268;6.770;2023-11-21T13:12:01;10.20;99.90
21353;DHT22;10834;52.268;6.770;2023-11-21T13:14:47;10.20;99.90
21353;DHT22;10834;52.268;6.770;2023-11-21T13:17:31;10.10;99.90
21353;DHT22;10834;52.268;6.770;2023-11-21T13:20:16;10.00;99.90
21353;DHT22;10834;52.268;6.770;2023-11-21T13:23:07;10.00;99.90
21353;DHT22;10834;52.268;6.770;2023-11-21T13:25:53;10.00;99.90
21353;DHT22;10834;52.268;6.770;2023-11-21T13:28:37;9.90;99.90
21353;DHT22;10834;52.268;6.770;2023-11-21T13:31:22;9.90;99.90
21353;DHT22;10834;52.268;6.770;2023-11-21T13:34:16;9.90;99.90
21353;DHT22;10834;52.268;6.770;2023-11-21T13:37:03;9.80;99.90
21353;DHT22;10834;52.268;6.770;2023-11-21T13:39:51;9.90;99.90
21353;DHT22;10834;52.268;6.770;2023-11-21T13:42:36;9.90;99.90
21353;DHT22;10834;52.268;6.770;2023-11-21T13:45:21;9.90;99.90
21353;DHT22;10834;52.268;6.770;2023-11-21T13:48:07;9.90;99.90
21353;DHT22;10834;52.268;6.770;2023-11-21T13:50:55;9.90;99.90
21353;DHT22;10834;52.268;6.770;2023-11-21T13:53:42;10.00;99.90
21353;DHT22;10834;52.268;6.770;2023-11-21T13:56:26;10.00;99.90
21353;DHT22;10834;52.268;6.770;2023-11-21T13:59:13;10.00;99.90
21353;DHT22;10834;52.268;6.770;2023-11-21T14:02:04;10.00;99.90
21353;DHT22;10834;52.268;6.770;2023-11-21T14:05:18;9.90;99.90
21353;DHT22;10834;52.268;6.770;2023-11-21T14:08:13;9.80;99.90
21353;DHT22;10834;52.268;6.770;2023-11-21T14:11:00;9.80;99.90
21353;DHT22;10834;52.268;6.770;2023-11-21T14:13:44;9.70;99.90
21353;DHT22;10834;52.268;6.770;2023-11-21T14:16:32;9.70;99.90
21353;DHT22;10834;52.268;6.770;2023-11-21T14:19:17;9.60;99.90
21353;DHT22;10834;52.268;6.770;2023-11-21T14:22:02;9.50;99.90
21353;DHT22;10834;52.268;6.770;2023-11-21T14:24:46;9.50;99.90
21353;DHT22;10834;52.268;6.770;2023-11-21T14:27:31;9.50;99.90
21353;DHT22;10834;52.268;6.770;2023-11-21T14:30:17;9.50;99.90
21353;DHT22;10834;52.268;6.770;2023-11-21T14:33:03;9.40;99.90
21353;DHT22;10834;52.268;6.770;2023-11-21T14:35:48;9.40;99.90
21353;DHT22;10834;52.268;6.770;2023-11-21T14:38:34;9.30;99.90
21353;DHT22;10834;52.268;6.770;2023-11-21T14:41:18;9.30;99.90
21353;DHT22;10834;52.268;6.770;2023-11-21T14:44:02;9.30;99.90
21353;DHT22;10834;52.268;6.770;2023-11-21T14:46:48;9.20;99.90
21353;DHT22;10834;52.268;6.770;2023-11-21T14:49:34;9.20;99.90
21353;DHT22;10834;52.268;6.770;2023-11-21T14:52:34;9.20;99.90
21353;DHT22;10834;52.268;6.770;2023-11-21T14:55:19;9.20;99.90
21353;DHT22;10834;52.268;6.770;2023-11-21T14:58:23;9.10;99.90
21353;DHT22;10834;52.268;6.770;2023-11-21T15:01:11;9.10;99.90
21353;DHT22;10834;52.268;6.770;2023-11-21T15:03:55;9.10;99.90
21353;DHT22;10834;52.268;6.770;2023-11-21T15:06:39;9.00;99.90
21353;DHT22;10834;52.268;6.770;2023-11-21T15:09:25;9.00;99.90
21353;DHT22;10834;52.268;6.770;2023-11-21T15:12:15;8.90;99.90
21353;DHT22;10834;52.268;6.770;2023-11-21T15:15:00;8.90;99.90
21353;DHT22;10834;52.268;6.770;2023-11-21T15:17:44;8.90;99.90
21353;DHT22;10834;52.268;6.770;2023-11-21T15:20:29;8.90;99.90
21353;DHT22;10834;52.268;6.770;2023-11-21T15:23:14;8.80;99.90
21353;DHT22;10834;52.268;6.770;2023-11-21T15:26:01;8.80;99.90
21353;DHT22;10834;52.268;6.770;2023-11-21T15:28:47;8.70;99.90
21353;DHT22;10834;52.268;6.770;2023-11-21T15:31:31;8.70;99.90
21353;DHT22;10834;52.268;6.770;2023-11-21T15:34:16;8.70;99.90
21353;DHT22;10834;52.268;6.770;2023-11-21T15:37:00;8.60;99.90
21353;DHT22;10834;52.268;6.770;2023-11-21T15:39:44;8.60;99.90
21353;DHT22;10834;52.268;6.770;2023-11-21T15:42:30;8.60;99.90
21353;DHT22;10834;52.268;6.770;2023-11-21T15:45:14;8.50;99.90
21353;DHT22;10834;52.268;6.770;2023-11-21T15:47:59;8.50;99.90
21353;DHT22;10834;52.268;6.770;2023-11-21T15:50:44;8.50;99.90
21353;DHT22;10834;52.268;6.770;2023-11-21T15:53:28;8.40;99.90
21353;DHT22;10834;52.268;6.770;2023-11-21T15:56:13;8.40;99.90
21353;DHT22;10834;52.268;6.770;2023-11-21T15:58:57;8.30;99.90
21353;DHT22;10834;52.268;6.770;2023-11-21T16:01:42;8.30;99.90
21353;DHT22;10834;52.268;6.770;2023-11-21T16:04:29;8.20;99.90
21353;DHT22;10834;52.268;6.770;2023-11-21T16:07:14;8.20;99.90
21353;DHT22;10834;52.268;6.770;2023-11-21T16:09:58;8.20;99.90
21353;DHT22;10834;52.268;6.770;2023-11-21T16:12:42;8.10;99.90
21353;DHT22;10834;52.268;6.770;2023-11-21T16:15:26;8.10;99.90
21353;DHT22;10834;52.268;6.770;2023-11-21T16:18:11;8.00;99.90
21353;DHT22;10834;52.268;6.770;2023-11-21T16:20:55;8.00;99.90
21353;DHT22;10834;52.268;6.770;2023-11-21T16:23:39;8.00;99.90
21353;DHT22;10834;52.268;6.770;2023-11-21T16:26:23;8.00;99.90
21353;DHT22;10834;52.268;6.770;2023-11-21T16:29:07;8.00;99.90
21353;DHT22;10834;52.268;6.770;2023-11-21T16:31:52;8.00;99.90
21353;DHT22;10834;52.268;6.770;2023-11-21T16:34:38;8.00;99.90
21353;DHT22;10834;52.268;6.770;2023-11-21T16:37:24;8.00;99.90
21353;DHT22;10834;52.268;6.770;2023-11-21T16:40:08;8.00;99.90
21353;DHT22;10834;52.268;6.770;2023-11-21T16:42:53;8.00;99.90
21353;DHT22;10834;52.268;6.770;2023-11-21T16:45:37;8.00;99.90
21353;DHT22;10834;52.268;6.770;2023-11-21T16:48:21;8.10;99.90
21353;DHT22;10834;52.268;6.770;2023-11-21T16:51:05;8.00;99.90
21353;DHT22;10834;52.268;6.770;2023-11-21T16:53:49;8.10;99.90
21353;DHT22;10834;52.268;6.770;2023-11-21T16:56:33;8.00;99.90
21353;DHT22;10834;52.268;6.770;2023-11-21T16:59:17;8.10;99.90
21353;DHT22;10834;52.268;6.770;2023-11-21T17:02:02;8.10;99.90
21353;DHT22;10834;52.268;6.770;2023-11-21T17:04:47;8.10;99.90
21353;DHT22;10834;52.268;6.770;2023-11-21T17:07:33;8.00;99.90
21353;DHT22;10834;52.268;6.770;2023-11-21T17:10:17;8.10;99.90
21353;DHT22;10834;52.268;6.770;2023-11-21T17:13:03;8.00;99.90
21353;DHT22;10834;52.268;6.770;2023-11-21T17:15:47;8.00;99.90
21353;DHT22;10834;52.268;6.770;2023-11-21T17:18:31;8.00;99.90
21353;DHT22;10834;52.268;6.770;2023-11-21T17:21:15;8.00;99.90
21353;DHT22;10834;52.268;6.770;2023-11-21T17:24:01;7.90;99.90
21353;DHT22;10834;52.268;6.770;2023-11-21T17:26:45;7.90;99.90
21353;DHT22;10834;52.268;6.770;2023-11-21T17:29:29;7.90;99.90
21353;DHT22;10834;52.268;6.770;2023-11-21T17:32:14;7.90;99.90
21353;DHT22;10834;52.268;6.770;2023-11-21T17:34:58;7.90;99.90
21353;DHT22;10834;52.268;6.770;2023-11-21T17:37:43;7.90;99.90